createdAt,value
2022-09-05T00:02:49.231Z,100.00
2022-09-05T00:05:25.691Z,100.00
2022-09-05T00:08:02.472Z,100.00
2022-09-05T00:10:47.973Z,100.00
2022-09-05T00:13:30.277Z,100.00
2022-09-05T00:16:06.072Z,100.00
2022-09-05T00:24:17.322Z,100.00
2022-09-05T00:24:19.519Z,100.00
2022-09-05T00:25:07.232Z,100.00
2022-09-05T00:27:46.735Z,100.00
2022-09-05T00:31:08.970Z,100.00
2022-09-05T00:33:23.703Z,100.00
2022-09-05T00:36:07.819Z,100.00
2022-09-05T00:38:37.467Z,100.00
2022-09-05T00:41:08.153Z,100.00
2022-09-05T00:43:37.212Z,100.00
2022-09-05T00:46:10.298Z,100.00
2022-09-05T00:48:47.097Z,100.00
2022-09-05T00:51:29.214Z,100.00
2022-09-05T00:54:41.269Z,100.00
2022-09-05T00:57:28.286Z,100.00
2022-09-05T01:00:08.045Z,100.00
2022-09-05T01:02:56.817Z,100.00
2022-09-05T01:05:37.308Z,100.00
2022-09-05T01:08:37.171Z,100.00
2022-09-05T01:11:11.895Z,100.00
2022-09-05T01:13:47.330Z,100.00
2022-09-05T01:16:23.657Z,100.00
2022-09-05T01:19:01.187Z,100.00
2022-09-05T01:22:06.096Z,100.00
2022-09-05T01:24:46.688Z,100.00
2022-09-05T01:27:56.227Z,100.00
2022-09-05T01:30:31.766Z,100.00
2022-09-05T01:33:08.584Z,100.00
2022-09-05T01:36:03.345Z,100.00
2022-09-05T01:38:38.205Z,100.00
2022-09-05T01:41:19.893Z,100.00
2022-09-05T01:44:07.877Z,100.00
2022-09-05T01:46:43.584Z,100.00
2022-09-05T01:49:25.135Z,100.00
2022-09-05T01:52:21.838Z,100.00
2022-09-05T01:55:03.140Z,100.00
2022-09-05T01:57:39.444Z,100.00
2022-09-05T02:00:12.889Z,100.00
2022-09-05T02:02:53.165Z,100.00
2022-09-05T02:05:51.215Z,100.00
2022-09-05T02:08:29.075Z,100.00
2022-09-05T02:11:05.840Z,100.00
2022-09-05T02:13:54.413Z,100.00
2022-09-05T02:16:30.043Z,100.00
2022-09-05T02:19:01.703Z,100.00
2022-09-05T02:21:56.326Z,100.00
2022-09-05T02:24:29.559Z,100.00
2022-09-05T02:27:28.262Z,100.00
2022-09-05T02:30:08.660Z,100.00
2022-09-05T02:32:48.223Z,100.00
2022-09-05T02:35:21.937Z,100.00
2022-09-05T02:42:17.210Z,100.00
2022-09-05T02:45:09.269Z,100.00
2022-09-05T02:45:19.795Z,100.00
2022-09-05T02:46:31.284Z,100.00
2022-09-05T02:49:23.407Z,100.00
2022-09-05T02:57:29.067Z,100.00
2022-09-05T02:57:33.269Z,100.00
2022-09-05T02:58:04.740Z,100.00
2022-09-05T03:00:39.314Z,100.00
2022-09-05T03:03:20.798Z,100.00
2022-09-05T03:05:56.858Z,100.00
2022-09-05T03:08:55.398Z,100.00
2022-09-05T03:12:28.382Z,100.00
2022-09-05T03:15:32.252Z,100.00
2022-09-05T03:18:20.515Z,100.00
2022-09-05T03:21:34.039Z,100.00
2022-09-05T03:24:31.016Z,100.00
2022-09-05T03:27:37.766Z,100.00
2022-09-05T03:30:15.732Z,100.00
2022-09-05T03:33:23.485Z,100.00
2022-09-05T03:36:25.497Z,100.00
2022-09-05T03:39:23.764Z,100.00
2022-09-05T03:42:04.386Z,100.00
2022-09-05T03:45:12.599Z,100.00
2022-09-05T03:48:01.688Z,100.00
2022-09-05T03:57:11.443Z,100.00
2022-09-05T03:57:17.060Z,100.00
2022-09-05T03:57:41.889Z,100.00
2022-09-05T04:00:11.960Z,100.00
2022-09-05T04:07:32.417Z,100.00
2022-09-05T04:08:15.654Z,100.00
2022-09-05T04:08:42.252Z,100.00
2022-09-05T04:11:16.472Z,100.00
2022-09-05T04:13:49.248Z,100.00
2022-09-05T04:16:19.671Z,100.00
2022-09-05T04:18:51.654Z,100.00
2022-09-05T04:21:24.321Z,100.00
2022-09-05T04:24:03.430Z,100.00
2022-09-05T04:27:01.244Z,100.00
2022-09-05T04:29:40.774Z,100.00
2022-09-05T04:32:19.474Z,100.00
2022-09-05T04:35:09.186Z,100.00
2022-09-05T04:37:48.794Z,100.00
2022-09-05T04:40:45.751Z,100.00
2022-09-05T04:43:23.209Z,100.00
2022-09-05T04:45:54.515Z,100.00
2022-09-05T04:48:26.168Z,100.00
2022-09-05T04:51:04.105Z,100.00
2022-09-05T04:53:40.792Z,100.00
2022-09-05T04:56:14.212Z,100.00
2022-09-05T05:00:36.803Z,100.00
2022-09-05T05:05:59.891Z,100.00
2022-09-05T05:06:12.916Z,100.00
2022-09-05T05:07:22.186Z,100.00
2022-09-05T05:10:03.273Z,100.00
2022-09-05T05:18:01.445Z,100.00
2022-09-05T05:18:09.964Z,100.00
2022-09-05T05:18:56.111Z,100.00
2022-09-05T05:21:28.902Z,100.00
2022-09-05T05:23:58.740Z,100.00
2022-09-05T05:26:31.083Z,100.00
2022-09-05T05:29:02.089Z,100.00
2022-09-05T05:31:33.279Z,100.00
2022-09-05T05:34:24.208Z,100.00
2022-09-05T05:36:56.265Z,100.00
2022-09-05T05:39:30.160Z,100.00
2022-09-05T05:42:05.252Z,100.00
2022-09-05T05:44:50.826Z,100.00
2022-09-05T05:47:29.885Z,100.00
2022-09-05T05:50:03.748Z,100.00
2022-09-05T05:52:51.160Z,100.00
2022-09-05T05:55:53.121Z,100.00
2022-09-05T05:58:35.818Z,100.00
2022-09-05T06:01:43.204Z,100.00
2022-09-05T06:04:48.159Z,100.00
2022-09-05T06:07:23.770Z,100.00
2022-09-05T06:14:48.639Z,100.00
2022-09-05T06:15:06.636Z,100.00
2022-09-05T06:17:05.417Z,100.00
2022-09-05T06:22:07.084Z,100.00
2022-09-05T06:23:32.106Z,100.00
2022-09-05T06:26:42.546Z,100.00
2022-09-05T06:29:21.299Z,100.00
2022-09-05T06:32:02.864Z,100.00
2022-09-05T06:34:51.162Z,100.00
2022-09-05T06:37:27.200Z,100.00
2022-09-05T06:40:05.558Z,100.00
2022-09-05T06:42:43.557Z,100.00
2022-09-05T06:45:28.804Z,100.00
2022-09-05T06:48:03.737Z,100.00
2022-09-05T06:51:07.093Z,100.00
2022-09-05T06:54:09.998Z,100.00
2022-09-05T06:56:48.319Z,100.00
2022-09-05T06:59:49.751Z,100.00
2022-09-05T07:02:58.026Z,100.00
2022-09-05T07:05:37.154Z,100.00
2022-09-05T07:08:35.272Z,100.00
2022-09-05T07:11:16.266Z,100.00
2022-09-05T07:13:58.708Z,100.00
2022-09-05T07:16:41.876Z,100.00
2022-09-05T07:19:26.959Z,100.00
2022-09-05T07:22:45.944Z,100.00
2022-09-05T07:25:10.743Z,100.00
2022-09-05T07:28:25.761Z,100.00
2022-09-05T07:30:32.246Z,100.00
2022-09-05T07:33:01.531Z,100.00
2022-09-05T07:35:37.011Z,100.00
2022-09-05T07:38:15.134Z,100.00
2022-09-05T07:40:50.613Z,100.00
2022-09-05T07:43:23.453Z,100.00
2022-09-05T07:46:03.598Z,100.00
2022-09-05T07:48:35.798Z,100.00
2022-09-05T07:56:46.042Z,100.00
2022-09-05T07:57:01.959Z,100.00
2022-09-05T07:57:20.739Z,100.00
2022-09-05T07:59:39.251Z,100.00
2022-09-05T08:02:10.255Z,100.00
2022-09-05T08:04:40.897Z,100.00
2022-09-05T08:07:46.548Z,100.00
2022-09-05T08:10:09.121Z,100.00
2022-09-05T08:13:22.439Z,100.00
2022-09-05T08:16:11.015Z,100.00
2022-09-05T08:18:22.756Z,100.00
2022-09-05T08:20:53.224Z,100.00
2022-09-05T08:23:25.807Z,100.00
2022-09-05T08:25:59.514Z,100.00
2022-09-05T08:28:39.083Z,100.00
2022-09-05T08:31:09.231Z,100.00
2022-09-05T08:33:38.092Z,100.00
2022-09-05T08:36:10.805Z,100.00
2022-09-05T08:38:41.240Z,100.00
2022-09-05T08:41:16.024Z,100.00
2022-09-05T08:46:36.520Z,100.00
2022-09-05T08:46:50.058Z,100.00
2022-09-05T08:49:46.122Z,100.00
2022-09-05T08:52:16.961Z,100.00
2022-09-05T08:55:05.704Z,100.00
2022-09-05T08:58:05.593Z,100.00
2022-09-05T09:00:40.575Z,100.00
2022-09-05T09:03:17.801Z,100.00
2022-09-05T09:06:16.406Z,100.00
2022-09-05T09:09:08.311Z,100.00
2022-09-05T09:11:39.115Z,100.00
2022-09-05T09:14:31.109Z,100.00
2022-09-05T09:17:08.120Z,100.00
2022-09-05T09:19:46.962Z,100.00
2022-09-05T09:22:22.234Z,98.77
2022-09-05T09:25:15.193Z,100.00
2022-09-05T09:28:47.670Z,98.06
2022-09-05T09:30:58.094Z,88.87
2022-09-05T09:33:36.977Z,90.73
2022-09-05T09:36:10.125Z,87.84
2022-09-05T09:38:45.929Z,94.42
2022-09-05T09:41:36.701Z,95.75
2022-09-05T09:44:46.330Z,85.45
2022-09-05T09:47:15.734Z,87.40
2022-09-05T09:50:00.837Z,88.95
2022-09-05T09:52:50.750Z,80.50
2022-09-05T09:55:52.147Z,79.35
2022-09-05T09:58:41.159Z,98.16
2022-09-05T10:01:34.992Z,79.30
2022-09-05T10:07:08.689Z,69.62
2022-09-05T10:10:48.843Z,66.38
2022-09-05T10:11:41.377Z,68.59
2022-09-05T10:14:24.167Z,78.26
2022-09-05T10:17:11.968Z,74.78
2022-09-05T10:20:09.999Z,68.94
2022-09-05T10:23:06.255Z,60.01
2022-09-05T10:25:49.575Z,66.59
2022-09-05T10:28:27.229Z,62.77
2022-09-05T10:32:37.682Z,63.94
2022-09-05T10:35:14.946Z,66.81
2022-09-05T10:36:52.135Z,60.26
2022-09-05T10:39:25.575Z,66.32
2022-09-05T10:42:01.346Z,64.49
2022-09-05T10:44:38.888Z,57.46
2022-09-05T10:47:28.275Z,61.34
2022-09-05T10:50:04.791Z,55.84
2022-09-05T10:55:26.294Z,53.23
2022-09-05T10:58:00.952Z,56.14
2022-09-05T11:02:27.454Z,58.51
2022-09-05T11:03:50.246Z,53.74
2022-09-05T11:06:25.064Z,57.35
2022-09-05T11:09:02.578Z,55.60
2022-09-05T11:11:41.242Z,59.27
2022-09-05T11:14:27.423Z,51.91
2022-09-05T11:17:01.394Z,48.23
2022-09-05T11:19:35.671Z,50.17
2022-09-05T11:22:22.544Z,50.09
2022-09-05T11:24:55.656Z,50.18
2022-09-05T11:27:29.672Z,47.86
2022-09-05T11:30:02.764Z,51.91
2022-09-05T11:38:43.972Z,49.76
2022-09-05T11:39:55.338Z,46.67
2022-09-05T11:39:57.725Z,47.57
2022-09-05T11:41:55.791Z,47.65
2022-09-05T11:44:29.680Z,50.71
2022-09-05T11:47:33.197Z,49.13
2022-09-05T11:50:27.645Z,45.31
2022-09-05T11:53:31.976Z,47.21
2022-09-05T11:56:28.079Z,49.35
2022-09-05T11:59:13.967Z,49.39
2022-09-05T12:01:53.560Z,47.37
2022-09-05T12:04:43.818Z,44.86
2022-09-05T12:07:37.330Z,46.21
2022-09-05T12:10:46.284Z,43.61
2022-09-05T12:13:26.473Z,43.35
2022-09-05T12:16:07.517Z,44.33
2022-09-05T12:19:06.307Z,47.68
2022-09-05T12:22:09.648Z,45.22
2022-09-05T12:25:23.565Z,44.76
2022-09-05T12:27:57.189Z,42.99
2022-09-05T12:30:47.645Z,45.30
2022-09-05T12:36:02.434Z,42.59
2022-09-05T12:40:48.175Z,43.26
2022-09-05T12:41:32.839Z,41.50
2022-09-05T12:42:25.682Z,39.71
2022-09-05T12:45:10.011Z,39.08
2022-09-05T12:47:54.138Z,46.56
2022-09-05T12:50:33.246Z,45.42
2022-09-05T12:53:07.886Z,47.33
2022-09-05T12:55:40.615Z,47.00
2022-09-05T13:02:55.347Z,48.47
2022-09-05T13:03:13.003Z,44.22
2022-09-05T13:04:25.213Z,44.05
2022-09-05T13:07:01.150Z,46.45
2022-09-05T13:10:38.106Z,47.11
2022-09-05T13:14:55.030Z,43.34
2022-09-05T13:15:23.945Z,43.49
2022-09-05T13:17:59.245Z,42.51
2022-09-05T13:20:34.904Z,40.25
2022-09-05T13:23:13.336Z,42.54
2022-09-05T13:25:44.596Z,43.34
2022-09-05T13:28:15.595Z,42.95
2022-09-05T13:37:53.696Z,43.61
2022-09-05T13:37:59.939Z,42.38
2022-09-05T13:38:11.131Z,42.34
2022-09-05T13:39:28.389Z,41.74
2022-09-05T13:42:03.486Z,40.71
2022-09-05T13:44:35.999Z,41.02
2022-09-05T13:47:29.822Z,40.97
2022-09-05T13:50:08.772Z,40.45
2022-09-05T13:52:41.089Z,40.04
2022-09-05T13:55:21.484Z,39.59
2022-09-05T13:57:55.109Z,39.77
2022-09-05T14:01:05.589Z,40.75
2022-09-05T14:04:06.045Z,41.28
2022-09-05T14:10:11.927Z,42.16
2022-09-05T14:12:43.664Z,42.75
2022-09-05T14:15:27.087Z,42.75
2022-09-05T14:18:19.926Z,40.91
2022-09-05T14:21:24.906Z,42.35
2022-09-05T14:23:56.618Z,41.18
2022-09-05T14:26:30.531Z,38.83
2022-09-05T14:29:03.403Z,39.49
2022-09-05T14:37:03.453Z,38.62
2022-09-05T14:37:42.038Z,38.63
2022-09-05T14:38:04.393Z,39.49
2022-09-05T14:41:00.323Z,39.08
2022-09-05T14:43:56.706Z,39.49
2022-09-05T14:47:10.068Z,38.94
2022-09-05T14:50:27.568Z,40.16
2022-09-05T14:57:23.311Z,39.26
2022-09-05T15:02:46.196Z,39.38
2022-09-05T15:02:57.368Z,38.47
2022-09-05T15:04:36.235Z,38.99
2022-09-05T15:07:10.884Z,36.90
2022-09-05T15:12:17.766Z,39.23
2022-09-05T15:12:40.940Z,38.24
2022-09-05T15:15:23.058Z,38.01
2022-09-05T15:17:53.651Z,36.69
2022-09-05T15:20:33.248Z,38.54
2022-09-05T15:23:11.254Z,37.49
2022-09-05T15:25:48.072Z,36.26
2022-09-05T15:28:21.695Z,36.38
2022-09-05T15:30:58.298Z,37.45
2022-09-05T15:33:29.289Z,35.77
2022-09-05T15:35:58.724Z,35.93
2022-09-05T15:38:31.779Z,36.09
2022-09-05T15:41:21.240Z,36.44
2022-09-05T15:43:58.402Z,34.77
2022-09-05T15:46:39.571Z,35.27
2022-09-05T15:49:11.263Z,35.82
2022-09-05T15:51:46.473Z,35.34
2022-09-05T15:54:37.344Z,34.35
2022-09-05T15:57:17.497Z,35.33
2022-09-05T15:59:49.140Z,34.39
2022-09-05T16:02:21.705Z,35.52
2022-09-05T16:08:39.779Z,35.96
2022-09-05T16:10:40.810Z,36.23
2022-09-05T16:11:21.296Z,35.92
2022-09-05T16:13:41.709Z,35.77
2022-09-05T16:23:19.404Z,36.64
2022-09-05T16:23:26.016Z,38.17
2022-09-05T16:23:27.400Z,36.35
2022-09-05T16:24:59.377Z,37.73
2022-09-05T16:27:43.982Z,38.54
2022-09-05T16:30:15.770Z,38.35
2022-09-05T16:32:50.847Z,38.39
2022-09-05T16:35:26.247Z,38.33
2022-09-05T16:37:58.739Z,38.46
2022-09-05T16:40:30.938Z,38.09
2022-09-05T16:43:04.593Z,37.34
2022-09-05T16:45:39.256Z,36.88
2022-09-05T16:48:23.902Z,37.11
2022-09-05T16:50:57.693Z,37.49
2022-09-05T16:53:32.246Z,39.03
2022-09-05T16:56:04.925Z,38.10
2022-09-05T16:58:39.813Z,38.96
2022-09-05T17:01:20.229Z,38.68
2022-09-05T17:03:54.857Z,39.46
2022-09-05T17:06:26.137Z,39.81
2022-09-05T17:09:03.204Z,39.52
2022-09-05T17:12:00.002Z,39.24
2022-09-05T17:14:35.463Z,40.49
2022-09-05T17:17:57.909Z,40.91
2022-09-05T17:20:07.129Z,41.69
2022-09-05T17:27:10.545Z,41.95
2022-09-05T17:29:25.247Z,45.56
2022-09-05T17:29:42.214Z,47.75
2022-09-05T17:34:48.301Z,49.24
2022-09-05T17:37:48.263Z,50.43
2022-09-05T17:40:48.202Z,51.11
2022-09-05T17:43:28.520Z,54.23
2022-09-05T17:46:10.163Z,57.71
2022-09-05T17:49:17.857Z,60.73
2022-09-05T17:52:22.794Z,65.03
2022-09-05T17:54:53.905Z,74.60
2022-09-05T17:57:42.153Z,76.26
2022-09-05T18:00:45.415Z,78.25
2022-09-05T18:04:15.925Z,80.07
2022-09-05T18:06:59.018Z,80.83
2022-09-05T18:10:01.457Z,82.26
2022-09-05T18:16:10.892Z,100.00
2022-09-05T18:19:32.089Z,100.00
2022-09-05T18:21:48.458Z,100.00
2022-09-05T18:24:25.002Z,100.00
2022-09-05T18:27:15.046Z,100.00
2022-09-05T18:29:59.384Z,100.00
2022-09-05T18:32:42.522Z,100.00
2022-09-05T18:35:36.405Z,100.00
2022-09-05T18:38:52.314Z,100.00
2022-09-05T18:41:22.851Z,100.00
2022-09-05T18:44:19.836Z,100.00
2022-09-05T18:46:46.590Z,100.00
2022-09-05T18:50:25.400Z,100.00
2022-09-05T18:52:13.944Z,100.00
2022-09-05T18:54:43.439Z,100.00
2022-09-05T18:57:27.219Z,100.00
2022-09-05T19:00:00.795Z,100.00
2022-09-05T19:02:50.477Z,100.00
2022-09-05T19:05:34.028Z,100.00
2022-09-05T19:08:04.743Z,100.00
2022-09-05T19:10:36.889Z,100.00
2022-09-05T19:13:16.402Z,100.00
2022-09-05T19:15:48.349Z,100.00
2022-09-05T19:18:36.890Z,100.00
2022-09-05T19:21:11.812Z,100.00
2022-09-05T19:23:48.383Z,100.00
2022-09-05T19:26:17.026Z,100.00
2022-09-05T19:36:47.124Z,100.00
2022-09-05T19:36:57.979Z,100.00
2022-09-05T19:37:03.966Z,100.00
2022-09-05T19:37:30.212Z,100.00
2022-09-05T19:47:03.163Z,100.00
2022-09-05T19:47:40.245Z,100.00
2022-09-05T19:47:56.351Z,100.00
2022-09-05T19:48:35.111Z,100.00
2022-09-05T19:51:17.626Z,100.00
2022-09-05T19:53:56.551Z,100.00
2022-09-05T19:56:38.564Z,100.00
2022-09-05T19:59:17.844Z,100.00
2022-09-05T20:01:48.481Z,100.00
2022-09-05T20:04:18.936Z,100.00
2022-09-05T20:06:47.901Z,100.00
2022-09-05T20:09:17.995Z,100.00
2022-09-05T20:11:50.558Z,100.00
2022-09-05T20:14:21.735Z,100.00
2022-09-05T20:16:52.711Z,100.00
2022-09-05T20:19:28.762Z,100.00
2022-09-05T20:22:10.119Z,100.00
2022-09-05T20:24:49.260Z,100.00
2022-09-05T20:27:18.116Z,100.00
2022-09-05T20:29:55.737Z,100.00
2022-09-05T20:32:39.376Z,100.00
2022-09-05T20:37:26.951Z,100.00
2022-09-05T20:43:22.464Z,100.00
2022-09-05T20:43:24.418Z,100.00
2022-09-05T20:43:58.352Z,100.00
2022-09-05T20:51:36.564Z,100.00
2022-09-05T20:54:13.078Z,100.00
2022-09-05T20:54:26.711Z,100.00
2022-09-05T20:55:39.785Z,100.00
2022-09-05T20:58:12.085Z,100.00
2022-09-05T21:00:46.389Z,100.00
2022-09-05T21:03:36.694Z,100.00
2022-09-05T21:06:22.213Z,100.00
2022-09-05T21:08:51.979Z,100.00
2022-09-05T21:11:30.161Z,100.00
2022-09-05T21:14:01.967Z,100.00
2022-09-05T21:16:32.189Z,100.00
2022-09-05T21:19:00.770Z,100.00
2022-09-05T21:21:32.481Z,100.00
2022-09-05T21:24:16.967Z,100.00
2022-09-05T21:26:50.577Z,100.00
2022-09-05T21:29:27.576Z,100.00
2022-09-05T21:32:01.871Z,100.00
2022-09-05T21:34:32.917Z,100.00
2022-09-05T21:37:06.883Z,100.00
2022-09-05T21:39:40.154Z,100.00
2022-09-05T21:42:15.623Z,100.00
2022-09-05T21:47:39.905Z,100.00
2022-09-05T21:47:53.772Z,100.00
2022-09-05T21:50:31.630Z,100.00
2022-09-05T21:53:55.142Z,100.00
2022-09-05T21:59:17.909Z,100.00
2022-09-05T21:59:27.216Z,100.00
2022-09-05T22:01:51.929Z,100.00
2022-09-05T22:04:21.920Z,100.00
2022-09-05T22:06:53.133Z,100.00
2022-09-05T22:09:24.341Z,100.00
2022-09-05T22:11:52.810Z,100.00
2022-09-05T22:14:22.713Z,100.00
2022-09-05T22:16:53.514Z,100.00
2022-09-05T22:19:36.814Z,100.00
2022-09-05T22:22:16.074Z,100.00
2022-09-05T22:24:49.976Z,100.00
2022-09-05T22:27:20.133Z,100.00
2022-09-05T22:29:50.875Z,100.00
2022-09-05T22:32:32.372Z,100.00
2022-09-05T22:35:26.830Z,100.00
2022-09-05T22:37:59.672Z,100.00
2022-09-05T22:40:31.489Z,100.00
2022-09-05T22:43:01.616Z,100.00
2022-09-05T22:45:31.344Z,100.00
2022-09-05T22:48:00.001Z,100.00
2022-09-05T22:50:28.385Z,100.00
2022-09-05T22:52:56.756Z,100.00
2022-09-05T22:55:25.315Z,100.00
2022-09-05T22:57:55.111Z,100.00
2022-09-05T23:00:23.454Z,100.00
2022-09-05T23:02:57.596Z,100.00
2022-09-05T23:05:26.271Z,100.00
2022-09-05T23:07:57.828Z,100.00
2022-09-05T23:10:26.767Z,100.00
2022-09-05T23:12:56.607Z,100.00
2022-09-05T23:15:25.345Z,100.00
2022-09-05T23:17:54.398Z,100.00
2022-09-05T23:20:23.094Z,100.00
2022-09-05T23:22:51.470Z,100.00
2022-09-05T23:25:21.476Z,100.00
2022-09-05T23:27:50.354Z,100.00
2022-09-05T23:30:20.358Z,100.00
2022-09-05T23:32:50.093Z,100.00
2022-09-05T23:35:19.336Z,100.00
2022-09-05T23:37:48.883Z,100.00
2022-09-05T23:40:20.039Z,100.00
2022-09-05T23:42:53.024Z,100.00
2022-09-05T23:45:23.043Z,100.00
2022-09-05T23:47:51.879Z,100.00
2022-09-05T23:50:21.155Z,100.00
2022-09-05T23:52:49.763Z,100.00
2022-09-05T23:55:19.627Z,100.00
2022-09-05T23:57:48.272Z,100.00
